Fire Weather Observation
Issued by NWS Grand Junction, CO

Home | Current Version | Previous Version | Graphics & Text | Print | Product List | Glossary On
Versions: 1 2 3 4 5 6 7 8 9 10 11 12 13 14 15 16 17 18 19 20 21 22 23 24 25 26 27 28 29 30 31 32 33 34 35
000
SHUS65 KGJT 222014
FWOGJT

DAILY FIRE WEATHER OBSERVATION
NATIONAL WEATHER SERVICE GRAND JUNCTION CO
212 PM MDT MON AUG 22 2016

STATE OF THE WEATHER (W)               2
DRY BULB TEMPERATURE                   84   DEGREES FAHRENHEIT
RELATIVE HUMIDITY (RH)                 23   PERCENT
LIGHTNING ACTIVITY LEVEL
  (LAL - MIDNIGHT TO 2 PM)             2
WIND DIRECTION                         270  DEGREES (C IF CALM)
WIND SPEED                             9    MPH
MAX TEMP (2 PM - 2 PM)                 92   DEGREES FAHRENHEIT
MIN TEMP (2 PM - 2 PM)                 65   DEGREES FAHRENHEIT
MAX RH (2 PM - 2 PM)                   45   PERCENT
MIN RH (2 PM - 2 PM)                   8    PERCENT
PCPN DURATION                          0.0  HOURS
PCPN AMT (2 PM - 2 PM)                 0.0  INCHES
LAL (2 PM - 2 PM)                      2

$$

METAR KGJT 221953Z 27008KT 10SM CLR 29/06 A3001 RMK AO2 LTG DSNT
      SW SLP086 VCSH CB DSNT ALQDS T02890056



USA.gov is the U.S. government's official web portal to all federal, state and local government web resources and services.